createdAt,value
2019-06-10T00:00:41.976Z,51.82
2019-06-10T00:03:11.750Z,51.91
2019-06-10T00:05:41.745Z,52.68
2019-06-10T00:08:11.843Z,53.75
2019-06-10T00:10:42.244Z,53.79
2019-06-10T00:13:12.111Z,53.58
2019-06-10T00:15:41.579Z,53.15
2019-06-10T00:18:30.872Z,52.70
2019-06-10T00:20:41.162Z,52.75
2019-06-10T00:23:12.072Z,52.83
2019-06-10T00:25:41.326Z,52.95
2019-06-10T00:28:12.067Z,52.26
2019-06-10T00:30:41.311Z,51.82
2019-06-10T00:33:12.446Z,52.29
2019-06-10T00:35:41.247Z,52.67
2019-06-10T00:38:13.790Z,53.22
2019-06-10T00:40:41.673Z,53.33
2019-06-10T00:43:13.088Z,54.14
2019-06-10T00:45:41.479Z,54.26
2019-06-10T00:48:24.726Z,55.23
2019-06-10T00:50:42.966Z,54.62
2019-06-10T00:53:14.002Z,55.04
2019-06-10T00:55:42.058Z,53.95
2019-06-10T00:58:13.924Z,54.85
2019-06-10T01:00:41.835Z,54.71
2019-06-10T01:03:13.616Z,55.11
2019-06-10T01:05:42.233Z,55.46
2019-06-10T01:08:13.879Z,54.83
2019-06-10T01:10:44.160Z,54.44
2019-06-10T01:13:15.107Z,54.63
2019-06-10T01:15:43.703Z,54.21
2019-06-10T01:18:32.013Z,54.11
2019-06-10T01:20:42.943Z,54.03
2019-06-10T01:23:13.593Z,54.06
2019-06-10T01:25:42.745Z,54.62
2019-06-10T01:28:13.310Z,55.22
2019-06-10T01:30:42.275Z,55.58
2019-06-10T01:33:13.204Z,55.17
2019-06-10T01:35:41.838Z,55.25
2019-06-10T01:38:13.398Z,55.84
2019-06-10T01:40:42.345Z,56.74
2019-06-10T01:43:13.976Z,56.92
2019-06-10T01:45:42.193Z,56.69
2019-06-10T01:48:13.079Z,56.04
2019-06-10T01:50:41.534Z,56.04
2019-06-10T01:53:13.832Z,56.45
2019-06-10T01:55:41.710Z,56.11
2019-06-10T01:58:14.375Z,56.84
2019-06-10T02:01:01.293Z,57.07
2019-06-10T02:03:31.498Z,57.06
2019-06-10T02:06:01.468Z,56.88
2019-06-10T02:08:31.563Z,56.88
2019-06-10T02:11:01.158Z,57.01
2019-06-10T02:13:32.513Z,57.64
2019-06-10T02:16:02.527Z,57.64
2019-06-10T02:18:32.085Z,56.99
2019-06-10T02:21:01.386Z,56.87
2019-06-10T02:23:31.386Z,57.16
2019-06-10T02:26:01.427Z,57.66
2019-06-10T02:28:31.949Z,57.56
2019-06-10T02:31:03.007Z,57.63
2019-06-10T02:33:35.980Z,57.09
2019-06-10T02:36:04.134Z,57.12
2019-06-10T02:38:37.914Z,56.84
2019-06-10T02:41:04.139Z,56.58
2019-06-10T02:43:37.542Z,57.32
2019-06-10T02:46:04.871Z,57.81
2019-06-10T02:48:35.190Z,57.85
2019-06-10T02:51:08.328Z,59.64
2019-06-10T02:53:37.911Z,59.27
2019-06-10T02:56:07.827Z,58.79
2019-06-10T02:58:39.408Z,58.61
2019-06-10T03:01:08.613Z,58.39
2019-06-10T03:03:44.578Z,57.89
2019-06-10T03:06:09.077Z,57.62
2019-06-10T03:08:38.033Z,57.83
2019-06-10T03:11:06.706Z,58.41
2019-06-10T03:13:35.698Z,58.41
2019-06-10T03:16:13.124Z,58.35
2019-06-10T03:18:43.487Z,58.06
2019-06-10T03:21:12.525Z,58.71
2019-06-10T03:23:42.707Z,57.52
2019-06-10T03:26:12.314Z,57.52
2019-06-10T03:28:42.884Z,57.60
2019-06-10T03:31:15.150Z,57.60
2019-06-10T03:33:47.282Z,58.58
2019-06-10T03:36:12.920Z,58.58
2019-06-10T03:38:43.240Z,58.78
2019-06-10T03:41:12.594Z,58.95
2019-06-10T03:43:43.006Z,58.08
2019-06-10T03:46:13.691Z,57.82
2019-06-10T03:48:43.439Z,58.81
2019-06-10T03:51:12.758Z,59.25
2019-06-10T03:53:42.679Z,57.45
2019-06-10T03:56:12.904Z,57.45
2019-06-10T03:58:43.046Z,55.97
2019-06-10T04:01:12.515Z,55.29
2019-06-10T04:03:42.798Z,55.25
2019-06-10T04:06:12.954Z,53.28
2019-06-10T04:08:43.232Z,50.08
2019-06-10T04:11:12.483Z,47.02
2019-06-10T04:13:43.115Z,47.91
2019-06-10T04:16:12.981Z,47.60
2019-06-10T04:18:42.976Z,46.39
2019-06-10T04:21:12.839Z,45.61
2019-06-10T04:23:42.598Z,44.38
2019-06-10T04:26:12.804Z,44.15
2019-06-10T04:28:43.036Z,44.24
2019-06-10T04:31:13.140Z,45.67
2019-06-10T04:33:42.816Z,44.64
2019-06-10T04:36:13.438Z,43.80
2019-06-10T04:38:43.166Z,43.25
2019-06-10T04:41:12.802Z,41.29
2019-06-10T04:43:43.276Z,42.69
2019-06-10T04:46:12.606Z,42.12
2019-06-10T04:48:42.729Z,40.76
2019-06-10T04:51:12.960Z,42.67
2019-06-10T04:53:43.517Z,41.67
2019-06-10T04:56:12.675Z,41.14
2019-06-10T04:58:43.238Z,41.92
2019-06-10T05:01:12.377Z,42.37
2019-06-10T05:03:43.154Z,41.31
2019-06-10T05:06:12.340Z,41.59
2019-06-10T05:08:42.551Z,45.94
2019-06-10T05:11:12.885Z,45.71
2019-06-10T05:13:42.925Z,45.28
2019-06-10T05:16:12.679Z,44.91
2019-06-10T05:18:42.408Z,43.27
2019-06-10T05:21:13.159Z,44.06
2019-06-10T05:23:43.058Z,45.07
2019-06-10T05:26:13.385Z,44.92
2019-06-10T05:28:43.186Z,43.94
2019-06-10T05:31:12.997Z,42.84
2019-06-10T05:33:42.723Z,43.06
2019-06-10T05:36:13.235Z,42.34
2019-06-10T05:38:43.433Z,42.71
2019-06-10T05:41:13.840Z,41.53
2019-06-10T05:43:43.152Z,41.76
2019-06-10T05:46:13.390Z,41.28
2019-06-10T05:48:43.710Z,41.38
2019-06-10T05:51:12.739Z,41.69
2019-06-10T05:53:42.237Z,41.55
2019-06-10T05:56:12.855Z,41.46
2019-06-10T05:58:43.575Z,42.42
2019-06-10T06:01:13.164Z,41.79
2019-06-10T06:03:43.988Z,41.04
2019-06-10T06:06:12.666Z,40.79
2019-06-10T06:08:42.858Z,42.04
2019-06-10T06:11:12.652Z,43.16
2019-06-10T06:13:43.281Z,41.76
2019-06-10T06:16:12.721Z,42.29
2019-06-10T06:18:42.211Z,41.36
2019-06-10T06:21:25.302Z,41.09
2019-06-10T06:23:43.727Z,40.33
2019-06-10T06:26:16.297Z,41.01
2019-06-10T06:28:43.321Z,41.40
2019-06-10T06:31:12.816Z,40.94
2019-06-10T06:33:43.329Z,40.94
2019-06-10T06:36:12.580Z,41.31
2019-06-10T06:38:43.756Z,43.18
2019-06-10T06:41:13.771Z,43.70
2019-06-10T06:43:45.267Z,42.08
2019-06-10T06:46:13.080Z,43.28
2019-06-10T06:48:43.838Z,41.61
2019-06-10T06:51:13.202Z,40.72
2019-06-10T06:53:45.346Z,41.60
2019-06-10T06:56:12.839Z,41.32
2019-06-10T06:58:43.353Z,40.45
2019-06-10T07:01:14.720Z,41.45
2019-06-10T07:03:45.187Z,40.73
2019-06-10T07:06:14.793Z,41.59
2019-06-10T07:09:00.330Z,41.58
2019-06-10T07:11:19.085Z,38.96
2019-06-10T07:13:47.791Z,38.73
2019-06-10T07:16:16.568Z,38.22
2019-06-10T07:18:49.900Z,36.96
2019-06-10T07:21:15.505Z,36.82
2019-06-10T07:23:46.596Z,36.23
2019-06-10T07:26:14.506Z,36.28
2019-06-10T07:28:47.118Z,37.34
2019-06-10T07:31:23.228Z,37.61
2019-06-10T07:33:47.173Z,36.62
2019-06-10T07:36:14.374Z,35.81
2019-06-10T07:38:48.236Z,35.30
2019-06-10T07:41:13.269Z,36.68
2019-06-10T07:43:47.516Z,36.62
2019-06-10T07:46:13.354Z,37.87
2019-06-10T07:48:47.833Z,39.14
2019-06-10T07:51:13.316Z,36.44
2019-06-10T07:53:46.095Z,37.49
2019-06-10T07:56:13.004Z,38.38
2019-06-10T07:58:46.920Z,35.60
2019-06-10T08:01:13.128Z,34.63
2019-06-10T08:03:45.998Z,34.49
2019-06-10T08:06:12.950Z,33.90
2019-06-10T08:08:44.844Z,33.49
2019-06-10T08:11:13.719Z,34.42
2019-06-10T08:13:45.700Z,35.00
2019-06-10T08:16:13.201Z,35.82
2019-06-10T08:19:14.371Z,35.49
2019-06-10T08:21:12.489Z,35.81
2019-06-10T08:23:45.097Z,36.56
2019-06-10T08:26:12.747Z,34.21
2019-06-10T08:28:44.535Z,34.85
2019-06-10T08:31:12.508Z,33.50
2019-06-10T08:33:44.325Z,32.75
2019-06-10T08:36:13.503Z,32.33
2019-06-10T08:38:45.047Z,33.17
2019-06-10T08:41:12.491Z,34.51
2019-06-10T08:43:44.719Z,35.53
2019-06-10T08:46:13.235Z,34.72
2019-06-10T08:48:45.803Z,34.61
2019-06-10T08:51:12.749Z,35.25
2019-06-10T08:53:44.679Z,34.71
2019-06-10T08:56:12.985Z,34.69
2019-06-10T08:58:47.390Z,34.44
2019-06-10T09:01:13.414Z,33.20
2019-06-10T09:03:46.684Z,33.75
2019-06-10T09:06:13.463Z,33.10
2019-06-10T09:08:45.714Z,33.69
2019-06-10T09:11:13.102Z,33.00
2019-06-10T09:13:45.485Z,34.50
2019-06-10T09:16:18.596Z,33.58
2019-06-10T09:18:46.320Z,32.68
2019-06-10T09:21:13.229Z,33.41
2019-06-10T09:23:43.518Z,34.38
2019-06-10T09:26:12.636Z,32.09
2019-06-10T09:28:47.110Z,31.80
2019-06-10T09:31:14.221Z,31.67
2019-06-10T09:33:49.055Z,32.26
2019-06-10T09:36:13.613Z,32.79
2019-06-10T09:38:46.792Z,33.09
2019-06-10T09:41:14.291Z,34.17
2019-06-10T09:43:48.975Z,33.37
2019-06-10T09:46:14.923Z,32.56
2019-06-10T09:48:47.098Z,31.50
2019-06-10T09:51:13.893Z,31.50
2019-06-10T09:53:51.396Z,29.17
2019-06-10T09:56:12.857Z,30.52
2019-06-10T09:58:44.679Z,29.94
2019-06-10T10:01:13.271Z,29.40
2019-06-10T10:03:46.928Z,30.97
2019-06-10T10:06:15.832Z,28.48
2019-06-10T10:08:46.067Z,29.02
2019-06-10T10:11:14.239Z,30.14
2019-06-10T10:13:46.086Z,31.98
2019-06-10T10:16:13.350Z,32.21
2019-06-10T10:18:45.809Z,32.52
2019-06-10T10:21:13.050Z,32.90
2019-06-10T10:23:53.993Z,32.74
2019-06-10T10:26:13.258Z,32.77
2019-06-10T10:28:44.634Z,33.24
2019-06-10T10:31:13.437Z,31.89
2019-06-10T10:33:42.597Z,31.13
2019-06-10T10:36:14.038Z,31.09
2019-06-10T10:38:42.703Z,29.72
2019-06-10T10:41:13.289Z,31.06
2019-06-10T10:43:44.829Z,31.08
2019-06-10T10:46:13.807Z,30.66
2019-06-10T10:48:43.152Z,32.03
2019-06-10T10:51:13.192Z,31.81
2019-06-10T10:53:46.774Z,31.05
2019-06-10T10:56:13.160Z,31.07
2019-06-10T10:58:45.347Z,31.44
2019-06-10T11:01:16.009Z,32.32
2019-06-10T11:03:47.587Z,33.15
2019-06-10T11:06:15.462Z,34.51
2019-06-10T11:08:46.258Z,34.69
2019-06-10T11:11:14.866Z,34.32
2019-06-10T11:13:45.519Z,33.05
2019-06-10T11:16:14.895Z,33.42
2019-06-10T11:18:43.539Z,32.57
2019-06-10T11:21:13.229Z,32.40
2019-06-10T11:23:43.659Z,32.64
2019-06-10T11:26:13.277Z,33.04
2019-06-10T11:28:43.088Z,33.22
2019-06-10T11:31:13.796Z,33.79
2019-06-10T11:33:43.679Z,34.59
2019-06-10T11:36:13.508Z,36.04
2019-06-10T11:38:43.205Z,36.78
2019-06-10T11:41:13.386Z,36.81
2019-06-10T11:43:43.170Z,37.87
2019-06-10T11:46:13.752Z,38.93
2019-06-10T11:48:43.564Z,38.71
2019-06-10T11:51:13.263Z,39.56
2019-06-10T11:53:44.018Z,40.23
2019-06-10T11:56:13.171Z,41.85
2019-06-10T11:58:42.790Z,42.45
2019-06-10T12:01:13.205Z,42.52
2019-06-10T12:03:43.166Z,42.37
2019-06-10T12:06:13.668Z,41.58
2019-06-10T12:08:43.673Z,41.55
2019-06-10T12:11:13.757Z,40.80
2019-06-10T12:13:49.052Z,40.78
2019-06-10T12:17:14.825Z,40.38
2019-06-10T12:18:49.052Z,39.93
2019-06-10T12:21:18.545Z,40.24
2019-06-10T12:23:47.244Z,40.50
2019-06-10T12:26:15.958Z,39.83
2019-06-10T12:28:44.574Z,39.28
2019-06-10T12:32:01.271Z,38.06
2019-06-10T12:33:52.956Z,37.30
2019-06-10T12:36:20.711Z,36.37
2019-06-10T12:38:49.410Z,36.80
2019-06-10T12:41:18.112Z,36.73
2019-06-10T12:43:46.744Z,36.53
2019-06-10T12:46:16.230Z,35.96
2019-06-10T12:48:45.104Z,36.16
2019-06-10T12:51:13.892Z,36.04
2019-06-10T12:53:43.461Z,35.94
2019-06-10T12:56:14.914Z,35.68
2019-06-10T12:58:43.458Z,36.21
2019-06-10T13:01:12.556Z,35.83
2019-06-10T13:03:43.546Z,35.74
2019-06-10T13:06:13.080Z,33.78
2019-06-10T13:08:44.073Z,34.10
2019-06-10T13:11:15.057Z,33.45
2019-06-10T13:13:45.335Z,33.09
2019-06-10T13:16:14.587Z,33.11
2019-06-10T13:18:43.743Z,32.31
2019-06-10T13:21:17.241Z,33.06
2019-06-10T13:23:43.396Z,33.97
2019-06-10T13:26:16.080Z,34.18
2019-06-10T13:28:44.419Z,33.97
2019-06-10T13:31:13.971Z,33.90
2019-06-10T13:33:43.263Z,34.31
2019-06-10T13:36:13.803Z,35.11
2019-06-10T13:38:43.055Z,34.89
2019-06-10T13:41:11.848Z,34.07
2019-06-10T13:43:43.206Z,34.09
2019-06-10T13:46:11.143Z,35.01
2019-06-10T13:48:39.792Z,35.42
2019-06-10T13:51:11.799Z,36.13
2019-06-10T13:53:38.756Z,36.54
2019-06-10T13:56:32.007Z,35.97
2019-06-10T13:58:37.701Z,35.49
2019-06-10T14:01:10.110Z,34.47
2019-06-10T14:03:36.817Z,34.78
2019-06-10T14:06:23.473Z,34.69
2019-06-10T14:08:36.414Z,35.24
2019-06-10T14:11:07.627Z,36.16
2019-06-10T14:13:35.400Z,36.33
2019-06-10T14:16:05.482Z,36.20
2019-06-10T14:18:34.501Z,37.30
2019-06-10T14:21:07.314Z,39.32
2019-06-10T14:23:33.552Z,40.60
2019-06-10T14:26:04.238Z,42.13
2019-06-10T14:28:40.655Z,44.82
2019-06-10T14:31:14.917Z,47.20
2019-06-10T14:33:33.261Z,53.13
2019-06-10T14:36:22.046Z,52.60
2019-06-10T14:38:50.228Z,55.95
2019-06-10T14:41:25.687Z,59.36
2019-06-10T14:43:57.444Z,60.57
2019-06-10T14:46:26.117Z,56.40
2019-06-10T14:48:54.756Z,55.78
2019-06-10T14:51:23.764Z,54.54
2019-06-10T14:53:52.475Z,53.32
2019-06-10T14:56:23.393Z,51.96
2019-06-10T14:58:52.961Z,51.58
2019-06-10T15:01:25.392Z,53.64
2019-06-10T15:03:52.351Z,53.52
2019-06-10T15:06:22.708Z,52.65
2019-06-10T15:08:53.316Z,53.56
2019-06-10T15:11:23.425Z,52.36
2019-06-10T15:13:52.530Z,52.07
2019-06-10T15:16:23.733Z,51.54
2019-06-10T15:18:52.594Z,52.74
2019-06-10T15:21:23.195Z,52.83
2019-06-10T15:23:53.304Z,52.11
2019-06-10T15:26:21.811Z,53.76
2019-06-10T15:28:52.247Z,54.22
2019-06-10T15:31:21.237Z,53.15
2019-06-10T15:33:52.287Z,54.18
2019-06-10T15:36:20.253Z,52.51
2019-06-10T15:38:49.007Z,52.03
2019-06-10T15:41:19.919Z,52.20
2019-06-10T15:43:47.954Z,51.59
2019-06-10T15:46:17.945Z,51.10
2019-06-10T15:48:47.001Z,50.44
2019-06-10T15:51:18.863Z,51.41
2019-06-10T15:53:45.915Z,51.67
2019-06-10T15:56:24.977Z,52.25
2019-06-10T15:58:44.919Z,52.38
2019-06-10T16:01:16.693Z,52.11
2019-06-10T16:03:44.014Z,53.28
2019-06-10T16:06:13.833Z,53.66
2019-06-10T16:08:43.162Z,54.52
2019-06-10T16:11:16.325Z,56.03
2019-06-10T16:13:42.988Z,56.55
2019-06-10T16:16:12.842Z,57.24
2019-06-10T16:18:42.380Z,57.74
2019-06-10T16:21:13.277Z,56.88
2019-06-10T16:23:43.011Z,57.19
2019-06-10T16:26:13.107Z,56.10
2019-06-10T16:28:42.767Z,55.40
2019-06-10T16:31:13.512Z,55.63
2019-06-10T16:33:49.079Z,55.11
2019-06-10T16:36:14.786Z,54.64
2019-06-10T16:38:43.712Z,54.24
2019-06-10T16:41:12.458Z,55.71
2019-06-10T16:43:42.822Z,55.18
2019-06-10T16:46:11.355Z,54.55
2019-06-10T16:48:40.060Z,54.84
2019-06-10T16:51:09.109Z,54.53
2019-06-10T16:53:37.745Z,54.83
2019-06-10T16:56:06.390Z,55.55
2019-06-10T16:58:34.965Z,55.06
2019-06-10T17:01:04.355Z,52.30
2019-06-10T17:03:34.019Z,51.53
2019-06-10T17:06:02.820Z,51.39
2019-06-10T17:08:33.510Z,51.43
2019-06-10T17:11:03.355Z,52.13
2019-06-10T17:13:32.238Z,52.36
2019-06-10T17:16:03.392Z,51.79
2019-06-10T17:18:33.622Z,51.79
2019-06-10T17:21:03.958Z,51.69
2019-06-10T17:23:36.367Z,51.01
2019-06-10T17:26:03.242Z,51.50
2019-06-10T17:28:36.380Z,51.80
2019-06-10T17:31:03.746Z,51.91
2019-06-10T17:33:35.725Z,52.01
2019-06-10T17:36:03.638Z,52.30
2019-06-10T17:38:32.367Z,52.55
2019-06-10T17:41:02.967Z,53.74
2019-06-10T17:43:34.452Z,53.25
2019-06-10T17:46:03.555Z,52.98
2019-06-10T17:48:33.655Z,53.22
2019-06-10T17:51:02.767Z,53.75
2019-06-10T17:53:34.606Z,57.96
2019-06-10T17:56:03.651Z,59.82
2019-06-10T17:58:50.362Z,60.97
2019-06-10T18:01:04.224Z,61.86
2019-06-10T18:03:33.434Z,63.03
2019-06-10T18:06:02.820Z,63.35
2019-06-10T18:08:34.940Z,64.77
2019-06-10T18:11:03.256Z,66.44
2019-06-10T18:13:33.133Z,67.22
2019-06-10T18:16:02.894Z,68.25
2019-06-10T18:18:35.591Z,67.85
2019-06-10T18:21:03.417Z,67.65
2019-06-10T18:23:33.105Z,67.68
2019-06-10T18:26:03.321Z,67.91
2019-06-10T18:28:45.558Z,67.08
2019-06-10T18:31:02.833Z,68.21
2019-06-10T18:33:34.451Z,67.93
2019-06-10T18:36:01.824Z,68.05
2019-06-10T18:38:33.934Z,68.20
2019-06-10T18:41:03.183Z,68.43
2019-06-10T18:43:32.538Z,67.38
2019-06-10T18:46:03.456Z,66.99
2019-06-10T18:48:36.104Z,67.56
2019-06-10T18:51:02.442Z,68.05
2019-06-10T18:53:33.222Z,68.19
2019-06-10T18:56:01.410Z,67.36
2019-06-10T18:58:30.135Z,66.18
2019-06-10T19:01:03.968Z,67.17
2019-06-10T19:03:30.419Z,67.23
2019-06-10T19:05:59.203Z,66.76
2019-06-10T19:08:29.018Z,67.12
2019-06-10T19:10:57.889Z,66.56
2019-06-10T19:13:26.456Z,66.18
2019-06-10T19:15:55.160Z,64.89
2019-06-10T19:18:23.802Z,63.99
2019-06-10T19:20:53.329Z,63.72
2019-06-10T19:23:22.878Z,63.40
2019-06-10T19:25:52.499Z,62.97
2019-06-10T19:28:22.805Z,62.97
2019-06-10T19:30:53.448Z,63.72
2019-06-10T19:33:23.858Z,66.31
2019-06-10T19:35:53.313Z,67.42
2019-06-10T19:38:23.097Z,66.83
2019-06-10T19:40:52.374Z,65.28
2019-06-10T19:43:21.321Z,64.19
2019-06-10T19:45:49.988Z,62.92
2019-06-10T19:48:19.819Z,62.62
2019-06-10T19:50:51.360Z,63.06
2019-06-10T19:53:18.875Z,62.49
2019-06-10T19:55:47.638Z,64.12
2019-06-10T19:58:16.234Z,65.17
2019-06-10T20:00:50.934Z,65.46
2019-06-10T20:03:15.234Z,65.15
2019-06-10T20:05:46.801Z,65.32
2019-06-10T20:08:14.191Z,64.46
2019-06-10T20:10:42.828Z,63.83
2019-06-10T20:13:11.589Z,64.37
2019-06-10T20:15:41.487Z,65.19
2019-06-10T20:18:12.288Z,66.14
2019-06-10T20:20:45.649Z,67.67
2019-06-10T20:23:11.505Z,68.49
2019-06-10T20:25:41.031Z,67.30
2019-06-10T20:28:10.520Z,67.30
2019-06-10T20:30:39.100Z,66.26
2019-06-10T20:33:07.673Z,64.99
2019-06-10T20:35:37.502Z,65.31
2019-06-10T20:38:06.158Z,65.52
2019-06-10T20:40:35.794Z,65.63
2019-06-10T20:43:04.517Z,65.54
2019-06-10T20:45:33.798Z,64.57
2019-06-10T20:48:02.964Z,64.72
2019-06-10T20:50:32.492Z,64.39
2019-06-10T20:53:11.827Z,64.25
2019-06-10T20:55:40.705Z,65.54
2019-06-10T20:58:06.856Z,65.24
2019-06-10T21:00:37.225Z,65.71
2019-06-10T21:03:06.602Z,65.96
2019-06-10T21:05:35.540Z,65.05
2019-06-10T21:08:05.497Z,65.14
2019-06-10T21:10:36.890Z,65.37
2019-06-10T21:13:07.201Z,65.75
2019-06-10T21:15:40.537Z,65.73
2019-06-10T21:18:09.619Z,65.19
2019-06-10T21:20:38.255Z,64.83
2019-06-10T21:23:06.820Z,64.02
2019-06-10T21:25:35.506Z,64.82
2019-06-10T21:28:04.154Z,66.00
2019-06-10T21:30:41.315Z,66.13
2019-06-10T21:33:03.871Z,66.48
2019-06-10T21:35:34.994Z,66.16
2019-06-10T21:38:04.894Z,65.99
2019-06-10T21:40:33.574Z,66.61
2019-06-10T21:43:02.989Z,67.24
2019-06-10T21:45:32.795Z,67.17
2019-06-10T21:48:02.334Z,66.78
2019-06-10T21:50:33.298Z,66.86
2019-06-10T21:53:02.878Z,66.57
2019-06-10T21:55:33.060Z,66.88
2019-06-10T21:58:03.722Z,66.11
2019-06-10T22:00:52.790Z,65.95
2019-06-10T22:03:12.715Z,65.95
2019-06-10T22:05:43.768Z,65.33
2019-06-10T22:08:12.526Z,65.46
2019-06-10T22:10:42.442Z,65.68
2019-06-10T22:13:12.399Z,65.87
2019-06-10T22:15:42.505Z,65.66
2019-06-10T22:18:12.648Z,65.93
2019-06-10T22:20:42.885Z,64.98
2019-06-10T22:23:12.793Z,63.58
2019-06-10T22:25:41.687Z,63.79
2019-06-10T22:28:10.335Z,64.60
2019-06-10T22:30:39.016Z,64.38
2019-06-10T22:33:07.639Z,64.80
2019-06-10T22:35:36.286Z,64.96
2019-06-10T22:38:04.969Z,65.75
2019-06-10T22:40:33.612Z,65.94
2019-06-10T22:43:03.146Z,65.12
2019-06-10T22:45:32.452Z,64.99
2019-06-10T22:48:02.983Z,65.18
2019-06-10T22:50:32.316Z,65.10
2019-06-10T22:53:03.921Z,64.98
2019-06-10T22:55:32.277Z,64.41
2019-06-10T22:58:03.296Z,64.06
2019-06-10T23:00:31.702Z,63.19
2019-06-10T23:03:02.723Z,62.48
2019-06-10T23:05:33.113Z,63.40
2019-06-10T23:08:02.415Z,64.43
2019-06-10T23:10:33.685Z,65.59
2019-06-10T23:13:03.076Z,66.70
2019-06-10T23:15:32.324Z,67.54
2019-06-10T23:18:03.244Z,67.16
2019-06-10T23:20:33.175Z,67.04
2019-06-10T23:23:03.204Z,66.83
2019-06-10T23:25:32.616Z,65.68
2019-06-10T23:28:01.430Z,65.09
2019-06-10T23:30:30.117Z,64.21
2019-06-10T23:32:59.594Z,63.22
2019-06-10T23:35:28.984Z,63.41
2019-06-10T23:37:59.905Z,63.59
2019-06-10T23:40:27.958Z,63.93
2019-06-10T23:42:57.034Z,65.64
2019-06-10T23:45:25.995Z,65.30
2019-06-10T23:47:56.521Z,65.47
2019-06-10T23:50:24.955Z,65.82
2019-06-10T23:52:55.809Z,65.79
2019-06-10T23:55:23.933Z,65.49
2019-06-10T23:57:53.651Z,65.63
